createdAt,value
2023-03-02T00:01:08.838Z,31.90
2023-03-02T00:06:11.323Z,38.03
2023-03-02T00:11:15.718Z,38.57
2023-03-02T00:16:18.076Z,34.57
2023-03-02T00:21:20.456Z,34.60
2023-03-02T00:26:22.719Z,34.43
2023-03-02T00:31:24.931Z,37.00
2023-03-02T00:36:27.336Z,28.87
2023-03-02T00:41:29.711Z,37.27
2023-03-02T00:46:32.370Z,33.30
2023-03-02T00:51:35.061Z,42.13
2023-03-02T00:56:37.367Z,35.97
2023-03-02T01:01:41.452Z,29.50
2023-03-02T01:06:47.317Z,32.67
2023-03-02T01:11:50.123Z,35.30
2023-03-02T01:16:52.788Z,33.37
2023-03-02T01:21:55.101Z,37.73
2023-03-02T01:26:57.294Z,36.93
2023-03-02T01:31:59.758Z,37.27
2023-03-02T01:37:02.235Z,35.23
2023-03-02T01:42:04.730Z,37.80
2023-03-02T01:47:23.843Z,37.53
2023-03-02T01:52:38.425Z,32.80
2023-03-02T01:57:46.855Z,32.77
2023-03-02T02:02:52.065Z,36.57
2023-03-02T02:07:57.467Z,32.07
2023-03-02T02:12:59.910Z,32.20
2023-03-02T02:18:02.103Z,38.03
2023-03-02T02:23:07.368Z,29.80
2023-03-02T02:28:18.748Z,31.23
2023-03-02T02:33:24.352Z,28.63
2023-03-02T02:38:27.432Z,30.80
2023-03-02T02:43:33.394Z,35.30
2023-03-02T02:48:36.424Z,32.40
2023-03-02T02:53:58.858Z,28.17
2023-03-02T02:59:34.157Z,34.37
2023-03-02T03:04:36.801Z,30.90
2023-03-02T03:09:39.245Z,34.73
2023-03-02T03:14:42.800Z,33.80
2023-03-02T03:19:48.220Z,30.30
2023-03-02T03:24:51.902Z,34.00
2023-03-02T03:29:54.459Z,30.80
2023-03-02T03:34:57.467Z,33.97
2023-03-02T03:40:05.980Z,33.50
2023-03-02T03:45:09.422Z,33.57
2023-03-02T03:50:13.238Z,32.93
2023-03-02T03:55:16.676Z,29.40
2023-03-02T04:00:22.941Z,36.77
2023-03-02T04:05:31.727Z,35.70
2023-03-02T04:10:36.779Z,33.37
2023-03-02T04:15:41.886Z,33.07
2023-03-02T04:20:44.482Z,33.43
2023-03-02T04:25:48.084Z,36.63
2023-03-02T04:30:55.012Z,33.80
2023-03-02T04:35:58.126Z,40.10
2023-03-02T04:41:00.904Z,33.83
2023-03-02T04:46:03.331Z,31.00
2023-03-02T04:51:06.149Z,30.37
2023-03-02T04:56:08.485Z,36.50
2023-03-02T05:01:12.390Z,34.40
2023-03-02T05:06:15.015Z,32.50
2023-03-02T05:11:22.670Z,36.50
2023-03-02T05:16:29.233Z,35.93
2023-03-02T05:21:31.878Z,35.73
2023-03-02T05:26:34.554Z,33.77
2023-03-02T05:31:44.213Z,32.60
2023-03-02T05:36:46.922Z,41.37
2023-03-02T05:41:49.210Z,41.40
2023-03-02T05:46:51.566Z,37.23
2023-03-02T05:51:53.816Z,43.50
2023-03-02T05:56:56.068Z,43.90
2023-03-02T06:01:59.373Z,38.50
2023-03-02T06:07:01.566Z,41.37
2023-03-02T06:12:03.956Z,46.00
2023-03-02T06:17:06.412Z,39.40
2023-03-02T06:22:08.677Z,41.53
2023-03-02T06:27:12.209Z,46.07
2023-03-02T06:32:14.565Z,50.87
2023-03-02T06:37:17.044Z,41.77
2023-03-02T06:42:19.324Z,41.23
2023-03-02T06:47:25.595Z,38.87
2023-03-02T06:52:27.935Z,45.60
2023-03-02T06:57:33.969Z,41.37
2023-03-02T07:02:37.413Z,43.80
2023-03-02T07:07:40.203Z,51.00
2023-03-02T07:12:43.193Z,50.37
2023-03-02T07:17:46.480Z,48.60
2023-03-02T07:22:48.844Z,41.40
2023-03-02T07:27:51.106Z,44.30
2023-03-02T07:32:53.354Z,41.27
2023-03-02T07:37:55.833Z,43.47
2023-03-02T07:42:58.062Z,45.73
2023-03-02T07:48:00.340Z,40.60
2023-03-02T07:53:02.799Z,43.03
2023-03-02T07:58:04.997Z,41.20
2023-03-02T08:03:07.272Z,39.00
2023-03-02T08:08:09.531Z,41.47
2023-03-02T08:13:11.906Z,45.60
2023-03-02T08:18:14.220Z,40.80
2023-03-02T08:23:16.435Z,38.43
2023-03-02T08:28:19.035Z,48.40
2023-03-02T08:33:21.377Z,45.33
2023-03-02T08:38:24.633Z,43.70
2023-03-02T08:43:27.023Z,39.20
2023-03-02T08:48:30.589Z,34.63
2023-03-02T08:53:37.484Z,38.60
2023-03-02T08:58:39.783Z,45.33
2023-03-02T09:03:42.124Z,38.23
2023-03-02T09:08:44.656Z,39.63
2023-03-02T09:13:46.991Z,40.23
2023-03-02T09:18:49.240Z,36.97
2023-03-02T09:23:55.923Z,36.87
2023-03-02T09:28:58.230Z,37.60
2023-03-02T09:34:00.503Z,37.60
2023-03-02T09:39:08.578Z,37.50
2023-03-02T09:44:53.858Z,33.73
2023-03-02T09:50:12.289Z,43.57
2023-03-02T09:55:24.336Z,39.90
2023-03-02T10:00:36.827Z,40.87
2023-03-02T10:05:57.286Z,38.37
2023-03-02T10:11:35.856Z,35.53
2023-03-02T10:16:49.884Z,37.03
2023-03-02T10:22:11.028Z,36.73
2023-03-02T10:27:30.135Z,38.27
2023-03-02T10:32:38.002Z,37.40
2023-03-02T10:37:42.766Z,35.57
2023-03-02T10:42:45.422Z,40.10
2023-03-02T10:47:47.746Z,39.30
2023-03-02T10:52:59.924Z,34.67
2023-03-02T10:58:26.231Z,34.87
2023-03-02T11:03:29.920Z,37.10
2023-03-02T11:08:33.066Z,38.40
2023-03-02T11:13:38.677Z,34.77
2023-03-02T11:19:00.778Z,39.10
2023-03-02T11:24:27.315Z,35.40
2023-03-02T11:29:58.926Z,41.03
2023-03-02T11:35:22.537Z,38.80
2023-03-02T11:40:49.610Z,38.27
2023-03-02T11:46:10.835Z,34.63
2023-03-02T11:51:25.630Z,38.00
2023-03-02T11:56:34.941Z,40.70
2023-03-02T12:01:39.001Z,38.77
2023-03-02T12:06:44.162Z,43.63
2023-03-02T12:11:47.107Z,33.37
2023-03-02T12:16:49.452Z,37.20
2023-03-02T12:21:57.831Z,34.20
2023-03-02T12:27:14.000Z,38.97
2023-03-02T12:32:19.306Z,35.80
2023-03-02T12:37:26.584Z,34.43
2023-03-02T12:42:41.318Z,38.27
2023-03-02T12:47:51.729Z,38.17
2023-03-02T12:53:17.854Z,41.40
2023-03-02T12:58:30.395Z,45.40
2023-03-02T13:03:32.849Z,40.90
2023-03-02T13:08:35.253Z,55.13
2023-03-02T13:13:45.520Z,39.20
2023-03-02T13:18:50.001Z,41.07
2023-03-02T13:23:52.282Z,40.53
2023-03-02T13:29:07.980Z,36.90
2023-03-02T13:34:28.358Z,39.20
2023-03-02T13:39:31.903Z,36.30
2023-03-02T13:44:35.627Z,35.43
2023-03-02T13:49:38.085Z,40.17
2023-03-02T13:54:44.704Z,37.40
2023-03-02T13:59:46.988Z,37.23
2023-03-02T14:04:49.331Z,39.73
2023-03-02T14:09:51.679Z,37.00
2023-03-02T14:14:57.975Z,39.50
2023-03-02T14:20:00.529Z,42.13
2023-03-02T14:25:02.685Z,40.87
2023-03-02T14:30:17.259Z,38.50
2023-03-02T14:35:19.542Z,60.90
2023-03-02T14:40:27.559Z,44.77
2023-03-02T14:45:30.931Z,88.20
2023-03-02T14:50:40.023Z,51.00
2023-03-02T14:55:43.140Z,29.83
2023-03-02T15:00:45.908Z,41.70
2023-03-02T15:06:00.313Z,37.20
2023-03-02T15:11:03.100Z,47.70
2023-03-02T15:16:05.794Z,41.60
2023-03-02T15:21:09.988Z,42.77
2023-03-02T15:26:14.106Z,41.93
2023-03-02T15:31:17.926Z,40.63
2023-03-02T15:36:20.864Z,43.53
2023-03-02T15:41:23.472Z,36.97
2023-03-02T15:46:27.007Z,38.03
2023-03-02T15:51:29.368Z,35.43
2023-03-02T15:56:43.683Z,42.03
2023-03-02T16:01:46.853Z,38.43
2023-03-02T16:06:49.115Z,39.13
2023-03-02T16:11:52.347Z,39.57
2023-03-02T16:17:00.776Z,36.93
2023-03-02T16:22:03.050Z,46.13
2023-03-02T16:27:05.311Z,43.13
2023-03-02T16:32:09.191Z,35.10
2023-03-02T16:37:11.658Z,37.87
2023-03-02T16:42:13.923Z,39.20
2023-03-02T16:47:16.185Z,32.67
2023-03-02T16:52:18.547Z,42.00
2023-03-02T16:57:20.726Z,38.20
2023-03-02T17:02:22.837Z,36.87
2023-03-02T17:07:24.968Z,39.33
2023-03-02T17:12:27.195Z,34.00
2023-03-02T17:17:29.552Z,41.83
2023-03-02T17:22:32.106Z,35.73
2023-03-02T17:27:34.452Z,33.10
2023-03-02T17:32:36.839Z,44.17
2023-03-02T17:37:39.790Z,41.30
2023-03-02T17:42:42.050Z,49.80
2023-03-02T17:47:44.201Z,39.57
2023-03-02T17:52:46.633Z,55.87
2023-03-02T17:57:48.744Z,42.63
2023-03-02T18:02:51.516Z,42.17
2023-03-02T18:07:54.672Z,42.87
2023-03-02T18:12:56.893Z,50.27
2023-03-02T18:17:59.109Z,51.63
2023-03-02T18:23:02.106Z,39.50
2023-03-02T18:28:05.140Z,43.53
2023-03-02T18:33:07.540Z,39.43
2023-03-02T18:38:09.739Z,45.33
2023-03-02T18:43:11.918Z,45.33
2023-03-02T18:48:14.151Z,45.67
2023-03-02T18:53:16.548Z,45.40
2023-03-02T18:58:22.066Z,50.07
2023-03-02T19:03:24.833Z,50.40
2023-03-02T19:08:27.631Z,53.67
2023-03-02T19:13:29.851Z,49.40
2023-03-02T19:18:33.322Z,48.80
2023-03-02T19:23:35.595Z,49.23
2023-03-02T19:28:40.001Z,48.53
2023-03-02T19:33:44.988Z,44.37
2023-03-02T19:38:47.278Z,41.07
2023-03-02T19:43:50.837Z,43.23
2023-03-02T19:48:53.330Z,42.27
2023-03-02T19:53:55.783Z,43.07
2023-03-02T19:59:00.064Z,48.03
2023-03-02T20:04:02.704Z,44.13
2023-03-02T20:09:07.549Z,45.83
2023-03-02T20:14:09.660Z,49.13
2023-03-02T20:19:14.258Z,48.10
2023-03-02T20:24:17.037Z,45.87
2023-03-02T20:29:19.892Z,48.07
2023-03-02T20:34:22.184Z,52.50
2023-03-02T20:39:33.505Z,45.17
2023-03-02T20:44:36.034Z,48.00
2023-03-02T20:49:38.817Z,48.60
2023-03-02T20:54:43.639Z,55.57
2023-03-02T20:59:47.011Z,49.30
2023-03-02T21:04:49.925Z,49.50
2023-03-02T21:09:52.199Z,52.13
2023-03-02T21:14:54.847Z,45.33
2023-03-02T21:19:58.147Z,46.93
2023-03-02T21:25:00.371Z,48.97
2023-03-02T21:30:06.370Z,49.03
2023-03-02T21:35:10.128Z,57.27
2023-03-02T21:40:40.672Z,46.03
2023-03-02T21:45:42.916Z,48.07
2023-03-02T21:50:45.077Z,51.10
2023-03-02T21:55:47.980Z,42.37
2023-03-02T22:00:50.280Z,46.30
2023-03-02T22:05:52.516Z,49.30
2023-03-02T22:10:54.760Z,42.27
2023-03-02T22:16:22.330Z,47.97
2023-03-02T22:21:38.628Z,53.53
2023-03-02T22:26:47.192Z,52.70
2023-03-02T22:31:53.358Z,60.17
2023-03-02T22:37:09.263Z,51.40
2023-03-02T22:42:20.470Z,56.30
2023-03-02T22:47:22.745Z,57.47
2023-03-02T22:52:31.090Z,59.37
2023-03-02T22:57:35.756Z,57.30
2023-03-02T23:02:44.150Z,54.10
2023-03-02T23:07:46.337Z,55.70
2023-03-02T23:12:48.500Z,49.97
2023-03-02T23:17:50.670Z,57.63
2023-03-02T23:22:53.173Z,47.03
2023-03-02T23:27:55.292Z,52.83
2023-03-02T23:32:57.434Z,50.07
2023-03-02T23:38:01.428Z,44.73
2023-03-02T23:43:03.667Z,47.87
2023-03-02T23:48:06.412Z,47.23
2023-03-02T23:53:08.868Z,48.20
2023-03-02T23:58:11.390Z,46.23
